Portada
METAR-TAF:

METAR-TAF

Aeropuertos :

Hamadán, Irán

latitud: 34-52-05N, longitud: 048-33-08E, altitud: 1757 m

Observación

El informe se hizo hace 11 horas y 40 minutos, a las 10:00 UTC
Viento 10 kt del norte
Temperatura 8°C
Humedad 81%
Presión 1019 hPa
Visibilidad 10 km o más
Escasas nubes a una altura de 3500 ft, Cumulonimbus.
Nubes dispersas a una altura de 4000 ft
Cielo nuboso a una altura de 10000 ft

METAR: OIHH 081000Z 36010KT 9999 FEW035CB SCT040 BKN100 08/05 Q1019

Hora: 02:10 (21:40 UTC)


TAF: falta

Observaciones y pronósticos meteorológicos de más de 4000 aeropuertos (mensajes METAR y TAF).

Los puntos amarillos y rojos representan las estaciones disponibles.

Ponga el ratón en el punto deseado para ver el nombre de la estación.

Haga clic para ver las observaciones y los pronósticos meteorológicos.

Para cambiar el mapa : haga clic en los botones verdes con una cruz de color negro para hacer un zoom, en el botón verde con un guión para alejar o en las flechas verdes para mapas adyacentes.


METAR-TAF: